sensor_id;sensor_type;location;lat;lon;timestamp;pressure;altitude;pressure_sealevel;temperature;humidity
68489;BME280;55481;48.764;8.936;2023-02-26T00:03:25;96480;;;-0.1;79.5
68489;BME280;55481;48.764;8.936;2023-02-26T00:06:02;96490;;;-0.2;79.5
68489;BME280;55481;48.764;8.936;2023-02-26T00:11:04;96490;;;-0.3;79.5
68489;BME280;55481;48.764;8.936;2023-02-26T00:13:33;96490;;;-0.3;79.5
68489;BME280;55481;48.764;8.936;2023-02-26T00:15:58;96490;;;-0.3;79.5
68489;BME280;55481;48.764;8.936;2023-02-26T00:18:27;96480;;;-0.3;79.5
68489;BME280;55481;48.764;8.936;2023-02-26T00:21:07;96490;;;-0.2;79
68489;BME280;55481;48.764;8.936;2023-02-26T00:23:36;96490;;;-0.2;79
68489;BME280;55481;48.764;8.936;2023-02-26T00:28:37;96480;;;-0.3;79
68489;BME280;55481;48.764;8.936;2023-02-26T00:31:08;96490;;;-0.4;79.5
68489;BME280;55481;48.764;8.936;2023-02-26T00:36:18;96490;;;-0.5;79.5
68489;BME280;55481;48.764;8.936;2023-02-26T00:38:31;96490;;;-0.5;79.5
68489;BME280;55481;48.764;8.936;2023-02-26T00:46:15;96490;;;-0.6;79.5
68489;BME280;55481;48.764;8.936;2023-02-26T00:51:41;96500;;;-0.7;80
68489;BME280;55481;48.764;8.936;2023-02-26T00:53:43;96500;;;-0.6;80
68489;BME280;55481;48.764;8.936;2023-02-26T00:56:12;96500;;;-0.6;79.5
68489;BME280;55481;48.764;8.936;2023-02-26T00:58:42;96500;;;-0.7;79.5
68489;BME280;55481;48.764;8.936;2023-02-26T01:01:07;96500;;;-0.7;79.5
68489;BME280;55481;48.764;8.936;2023-02-26T01:03:37;96500;;;-0.8;79.5
68489;BME280;55481;48.764;8.936;2023-02-26T01:08:42;96500;;;-0.8;79.5
68489;BME280;55481;48.764;8.936;2023-02-26T01:11:17;96490;;;-0.9;79.5
68489;BME280;55481;48.764;8.936;2023-02-26T01:13:47;96500;;;-1;80
68489;BME280;55481;48.764;8.936;2023-02-26T01:16:19;96500;;;-1;80
68489;BME280;55481;48.764;8.936;2023-02-26T01:18:52;96500;;;-1;80
68489;BME280;55481;48.764;8.936;2023-02-26T01:34:11;96490;;;-1.1;80
68489;BME280;55481;48.764;8.936;2023-02-26T01:39:11;96480;;;-1.1;79.5
68489;BME280;55481;48.764;8.936;2023-02-26T01:46:25;96490;;;-1.3;80
68489;BME280;55481;48.764;8.936;2023-02-26T01:49:00;96490;;;-1.3;80
68489;BME280;55481;48.764;8.936;2023-02-26T01:51:52;96500;;;-1.3;80
68489;BME280;55481;48.764;8.936;2023-02-26T01:56:18;96500;;;-1.3;79.5
68489;BME280;55481;48.764;8.936;2023-02-26T01:58:49;96490;;;-1.4;79.5
68489;BME280;55481;48.764;8.936;2023-02-26T02:01:20;96490;;;-1.4;79.5
68489;BME280;55481;48.764;8.936;2023-02-26T02:03:51;96490;;;-1.5;79.5
68489;BME280;55481;48.764;8.936;2023-02-26T02:06:23;96490;;;-1.5;80
68489;BME280;55481;48.764;8.936;2023-02-26T02:08:53;96490;;;-1.5;79.5
68489;BME280;55481;48.764;8.936;2023-02-26T02:11:30;96490;;;-1.4;79.5
68489;BME280;55481;48.764;8.936;2023-02-26T02:19:23;96500;;;-1.3;79
68489;BME280;55481;48.764;8.936;2023-02-26T02:22:39;96500;;;-1.4;79.5
68489;BME280;55481;48.764;8.936;2023-02-26T02:24:07;96500;;;-1.5;79.5
68489;BME280;55481;48.764;8.936;2023-02-26T02:26:37;96500;;;-1.5;79
68489;BME280;55481;48.764;8.936;2023-02-26T02:29:12;96510;;;-1.6;79.5
68489;BME280;55481;48.764;8.936;2023-02-26T02:33:59;96510;;;-1.7;80
68489;BME280;55481;48.764;8.936;2023-02-26T02:36:36;96510;;;-1.6;80
68489;BME280;55481;48.764;8.936;2023-02-26T02:46:39;96520;;;-1.7;79.5
68489;BME280;55481;48.764;8.936;2023-02-26T02:49:11;96530;;;-1.8;79.5
68489;BME280;55481;48.764;8.936;2023-02-26T02:54:09;96530;;;-1.9;79.5
68489;BME280;55481;48.764;8.936;2023-02-26T02:56:34;96530;;;-1.9;79.5
68489;BME280;55481;48.764;8.936;2023-02-26T02:59:10;96530;;;-1.9;79.5
68489;BME280;55481;48.764;8.936;2023-02-26T03:01:39;96530;;;-2;79.5
68489;BME280;55481;48.764;8.936;2023-02-26T03:04:13;96530;;;-2;80
68489;BME280;55481;48.764;8.936;2023-02-26T03:06:44;96540;;;-2.1;80
68489;BME280;55481;48.764;8.936;2023-02-26T03:09:19;96540;;;-2;79.5
68489;BME280;55481;48.764;8.936;2023-02-26T03:14:06;96540;;;-1.9;79.5
68489;BME280;55481;48.764;8.936;2023-02-26T03:16:43;96540;;;-2;79.5
68489;BME280;55481;48.764;8.936;2023-02-26T03:21:34;96540;;;-1.6;80
68489;BME280;55481;48.764;8.936;2023-02-26T03:24:08;96540;;;-1.7;79.5
68489;BME280;55481;48.764;8.936;2023-02-26T03:26:39;96540;;;-1.7;79.5
68489;BME280;55481;48.764;8.936;2023-02-26T03:34:10;96550;;;-1.7;79
68489;BME280;55481;48.764;8.936;2023-02-26T03:36:38;96550;;;-1.8;79
68489;BME280;55481;48.764;8.936;2023-02-26T03:39:17;96550;;;-1.9;79
68489;BME280;55481;48.764;8.936;2023-02-26T03:44:18;96560;;;-2.1;80
68489;BME280;55481;48.764;8.936;2023-02-26T03:46:49;96560;;;-2;80
68489;BME280;55481;48.764;8.936;2023-02-26T03:49:19;96560;;;-1.9;79.5
68489;BME280;55481;48.764;8.936;2023-02-26T03:51:49;96570;;;-1.9;79
68489;BME280;55481;48.764;8.936;2023-02-26T03:54:25;96570;;;-2;79
68489;BME280;55481;48.764;8.936;2023-02-26T03:56:50;96570;;;-2;79.5
68489;BME280;55481;48.764;8.936;2023-02-26T03:59:21;96570;;;-1.9;80
68489;BME280;55481;48.764;8.936;2023-02-26T04:02:07;96570;;;-1.7;79.5
68489;BME280;55481;48.764;8.936;2023-02-26T04:04:33;96580;;;-1.6;79
68489;BME280;55481;48.764;8.936;2023-02-26T04:12:02;96580;;;-1.9;79
68489;BME280;55481;48.764;8.936;2023-02-26T04:14:33;96580;;;-2;79.5
68489;BME280;55481;48.764;8.936;2023-02-26T04:17:03;96590;;;-2.1;79.5
68489;BME280;55481;48.764;8.936;2023-02-26T04:19:33;96580;;;-2.1;79.5
68489;BME280;55481;48.764;8.936;2023-02-26T04:22:04;96580;;;-2.2;79.5
68489;BME280;55481;48.764;8.936;2023-02-26T04:24:33;96590;;;-2.3;79.5
68489;BME280;55481;48.764;8.936;2023-02-26T04:27:03;96580;;;-2.4;79.5
68489;BME280;55481;48.764;8.936;2023-02-26T04:29:33;96590;;;-2.5;79.5
68489;BME280;55481;48.764;8.936;2023-02-26T04:34:28;96590;;;-2.6;80
68489;BME280;55481;48.764;8.936;2023-02-26T04:36:59;96590;;;-2.6;79.5
68489;BME280;55481;48.764;8.936;2023-02-26T04:39:30;96590;;;-2.6;80
68489;BME280;55481;48.764;8.936;2023-02-26T04:44:39;96590;;;-2.7;80
68489;BME280;55481;48.764;8.936;2023-02-26T04:47:08;96600;;;-2.7;79.5
68489;BME280;55481;48.764;8.936;2023-02-26T04:52:02;96600;;;-2.7;80
68489;BME280;55481;48.764;8.936;2023-02-26T04:54:33;96610;;;-2.8;79.5
68489;BME280;55481;48.764;8.936;2023-02-26T04:57:11;96610;;;-2.8;80
68489;BME280;55481;48.764;8.936;2023-02-26T05:04:43;96610;;;-2.7;79.5
68489;BME280;55481;48.764;8.936;2023-02-26T05:07:13;96610;;;-2.8;79.5
68489;BME280;55481;48.764;8.936;2023-02-26T05:09:43;96610;;;-2.8;79.5
68489;BME280;55481;48.764;8.936;2023-02-26T05:12:08;96620;;;-2.7;79.5
68489;BME280;55481;48.764;8.936;2023-02-26T05:14:39;96620;;;-2.6;79.5
68489;BME280;55481;48.764;8.936;2023-02-26T05:17:09;96620;;;-2.5;79.5
68489;BME280;55481;48.764;8.936;2023-02-26T05:19:40;96620;;;-2.6;79
68489;BME280;55481;48.764;8.936;2023-02-26T05:27:26;96620;;;-2.8;79.5
68489;BME280;55481;48.764;8.936;2023-02-26T05:32:20;96620;;;-2.9;79.5
68489;BME280;55481;48.764;8.936;2023-02-26T05:34:50;96620;;;-2.8;79.5
68489;BME280;55481;48.764;8.936;2023-02-26T05:37:20;96630;;;-2.9;79.5
68489;BME280;55481;48.764;8.936;2023-02-26T05:39:50;96630;;;-2.9;79.5
68489;BME280;55481;48.764;8.936;2023-02-26T05:44:45;96630;;;-2.8;79.5
68489;BME280;55481;48.764;8.936;2023-02-26T05:47:16;96640;;;-2.9;79.5
68489;BME280;55481;48.764;8.936;2023-02-26T05:49:48;96640;;;-2.9;79.5
68489;BME280;55481;48.764;8.936;2023-02-26T05:52:18;96650;;;-2.9;79.5
68489;BME280;55481;48.764;8.936;2023-02-26T05:59:44;96650;;;-2.8;79.5
68489;BME280;55481;48.764;8.936;2023-02-26T06:02:14;96660;;;-2.8;79.5
68489;BME280;55481;48.764;8.936;2023-02-26T06:04:45;96670;;;-2.8;79.5
68489;BME280;55481;48.764;8.936;2023-02-26T06:07:16;96670;;;-2.8;79.5
68489;BME280;55481;48.764;8.936;2023-02-26T06:09:47;96670;;;-2.8;79.5
68489;BME280;55481;48.764;8.936;2023-02-26T06:12:18;96670;;;-2.8;79.5
68489;BME280;55481;48.764;8.936;2023-02-26T06:14:48;96680;;;-2.9;79.5
68489;BME280;55481;48.764;8.936;2023-02-26T06:17:19;96680;;;-2.9;79.5
68489;BME280;55481;48.764;8.936;2023-02-26T06:19:57;96690;;;-2.9;79.5
68489;BME280;55481;48.764;8.936;2023-02-26T06:22:28;96690;;;-2.9;79.5
68489;BME280;55481;48.764;8.936;2023-02-26T06:24:59;96700;;;-2.9;79.5
68489;BME280;55481;48.764;8.936;2023-02-26T06:27:40;96700;;;-2.9;79.5
68489;BME280;55481;48.764;8.936;2023-02-26T06:32:50;96710;;;-2.8;79.5
68489;BME280;55481;48.764;8.936;2023-02-26T06:35:08;96710;;;-2.8;79.5
68489;BME280;55481;48.764;8.936;2023-02-26T06:37:38;96720;;;-2.8;79.5
68489;BME280;55481;48.764;8.936;2023-02-26T06:40:08;96720;;;-2.8;79.5
68489;BME280;55481;48.764;8.936;2023-02-26T06:42:38;96720;;;-2.8;79.5
68489;BME280;55481;48.764;8.936;2023-02-26T06:45:08;96730;;;-2.6;79.5
68489;BME280;55481;48.764;8.936;2023-02-26T06:47:32;96730;;;-2.6;79
68489;BME280;55481;48.764;8.936;2023-02-26T06:50:03;96740;;;-2.7;79.5
68489;BME280;55481;48.764;8.936;2023-02-26T06:52:40;96740;;;-2.6;79.5
68489;BME280;55481;48.764;8.936;2023-02-26T06:57:36;96750;;;-2.6;79.5
68489;BME280;55481;48.764;8.936;2023-02-26T07:05:14;96760;;;-1.9;78.5
68489;BME280;55481;48.764;8.936;2023-02-26T07:07:45;96760;;;-1.6;78.5
68489;BME280;55481;48.764;8.936;2023-02-26T07:10:09;96760;;;-1.5;78
68489;BME280;55481;48.764;8.936;2023-02-26T07:12:39;96770;;;-1.3;78
68489;BME280;55481;48.764;8.936;2023-02-26T07:17:48;96770;;;-1.2;78
68489;BME280;55481;48.764;8.936;2023-02-26T07:20:19;96770;;;-1.2;78
68489;BME280;55481;48.764;8.936;2023-02-26T07:25:34;96770;;;-1.3;78.5
68489;BME280;55481;48.764;8.936;2023-02-26T07:27:51;96780;;;-1.2;78.5
68489;BME280;55481;48.764;8.936;2023-02-26T07:32:45;96780;;;-0.9;78
68489;BME280;55481;48.764;8.936;2023-02-26T07:35:18;96780;;;-0.9;78
68489;BME280;55481;48.764;8.936;2023-02-26T07:37:47;96780;;;-1;78
68489;BME280;55481;48.764;8.936;2023-02-26T07:40:11;96780;;;-1.2;78.5
68489;BME280;55481;48.764;8.936;2023-02-26T07:47:43;96790;;;-1.1;78.5
68489;BME280;55481;48.764;8.936;2023-02-26T07:50:14;96790;;;-1.1;79
68489;BME280;55481;48.764;8.936;2023-02-26T07:52:45;96790;;;-1.2;79
68489;BME280;55481;48.764;8.936;2023-02-26T07:55:16;96790;;;-1.1;79
68489;BME280;55481;48.764;8.936;2023-02-26T08:00:23;96790;;;-0.6;78.5
68489;BME280;55481;48.764;8.936;2023-02-26T08:02:54;96790;;;-0.5;78
68489;BME280;55481;48.764;8.936;2023-02-26T08:05:25;96790;;;-0.7;78.5
68489;BME280;55481;48.764;8.936;2023-02-26T08:10:20;96800;;;-1;79
68489;BME280;55481;48.764;8.936;2023-02-26T08:12:51;96800;;;-1;79
68489;BME280;55481;48.764;8.936;2023-02-26T08:15:22;96790;;;-1;79
68489;BME280;55481;48.764;8.936;2023-02-26T08:17:52;96800;;;-1;79.5
68489;BME280;55481;48.764;8.936;2023-02-26T08:20:23;96800;;;-1;79.5
68489;BME280;55481;48.764;8.936;2023-02-26T08:22:54;96800;;;-1.1;79.5
68489;BME280;55481;48.764;8.936;2023-02-26T08:25:25;96800;;;-1.2;79.5
68489;BME280;55481;48.764;8.936;2023-02-26T08:27:55;96810;;;-1.1;79.5
68489;BME280;55481;48.764;8.936;2023-02-26T08:30:26;96810;;;-0.9;79.5
68489;BME280;55481;48.764;8.936;2023-02-26T08:32:57;96810;;;-0.8;79
68489;BME280;55481;48.764;8.936;2023-02-26T08:40:30;96810;;;-0.6;78.5
68489;BME280;55481;48.764;8.936;2023-02-26T08:48:08;96820;;;-0.4;78.5
68489;BME280;55481;48.764;8.936;2023-02-26T08:50:39;96820;;;-0.2;78.5
68489;BME280;55481;48.764;8.936;2023-02-26T08:53:10;96820;;;-0.2;78.5
68489;BME280;55481;48.764;8.936;2023-02-26T08:55:48;96820;;;-0.7;78.5
68489;BME280;55481;48.764;8.936;2023-02-26T08:58:19;96820;;;-0.9;79.5
68489;BME280;55481;48.764;8.936;2023-02-26T09:00:55;96830;;;-0.7;79.5
68489;BME280;55481;48.764;8.936;2023-02-26T09:05:42;96830;;;-0.3;78.5
68489;BME280;55481;48.764;8.936;2023-02-26T09:08:13;96830;;;-0.3;79
68489;BME280;55481;48.764;8.936;2023-02-26T09:13:08;96830;;;-0.5;78.5
68489;BME280;55481;48.764;8.936;2023-02-26T09:15:39;96850;;;-0.8;79
68489;BME280;55481;48.764;8.936;2023-02-26T09:18:10;96840;;;-0.8;79.5
68489;BME280;55481;48.764;8.936;2023-02-26T09:20:42;96850;;;-0.9;79.5
68489;BME280;55481;48.764;8.936;2023-02-26T09:23:12;96840;;;-1.1;79.5
68489;BME280;55481;48.764;8.936;2023-02-26T09:25:42;96850;;;-1;80
68489;BME280;55481;48.764;8.936;2023-02-26T09:36:05;96860;;;-1;79.5
68489;BME280;55481;48.764;8.936;2023-02-26T09:38:42;96870;;;-1;80
68489;BME280;55481;48.764;8.936;2023-02-26T09:40:59;96860;;;-0.9;79.5
68489;BME280;55481;48.764;8.936;2023-02-26T09:45:52;96870;;;-0.7;79
68489;BME280;55481;48.764;8.936;2023-02-26T09:48:23;96870;;;-0.6;79
68489;BME280;55481;48.764;8.936;2023-02-26T09:50:55;96880;;;-0.6;79
68489;BME280;55481;48.764;8.936;2023-02-26T09:53:27;96880;;;-0.7;79
68489;BME280;55481;48.764;8.936;2023-02-26T09:56:01;96880;;;-0.8;79.5
68489;BME280;55481;48.764;8.936;2023-02-26T09:58:29;96880;;;-0.9;79.5
68489;BME280;55481;48.764;8.936;2023-02-26T10:01:38;96880;;;-1;79.5
68489;BME280;55481;48.764;8.936;2023-02-26T10:08:38;96890;;;-0.8;79
68489;BME280;55481;48.764;8.936;2023-02-26T10:11:11;96890;;;-0.9;79
68489;BME280;55481;48.764;8.936;2023-02-26T10:16:04;96890;;;-1;79.5
68489;BME280;55481;48.764;8.936;2023-02-26T10:18:33;96890;;;-0.9;79.5
68489;BME280;55481;48.764;8.936;2023-02-26T10:21:08;96900;;;-0.9;79.5
68489;BME280;55481;48.764;8.936;2023-02-26T10:31:02;96900;;;-0.9;79.5
68489;BME280;55481;48.764;8.936;2023-02-26T10:33:36;96900;;;-1;79.5
68489;BME280;55481;48.764;8.936;2023-02-26T10:36:03;96910;;;-1;79.5
68489;BME280;55481;48.764;8.936;2023-02-26T10:38:31;96910;;;-0.9;79.5
68489;BME280;55481;48.764;8.936;2023-02-26T10:41:09;96910;;;-0.8;79.5
68489;BME280;55481;48.764;8.936;2023-02-26T10:43:40;96910;;;-0.9;79
68489;BME280;55481;48.764;8.936;2023-02-26T10:48:54;96920;;;-0.8;79.5
68489;BME280;55481;48.764;8.936;2023-02-26T10:54:20;96920;;;-0.5;79
68489;BME280;55481;48.764;8.936;2023-02-26T10:58:51;96920;;;0;78
68489;BME280;55481;48.764;8.936;2023-02-26T11:01:24;96920;;;-0.1;78
68489;BME280;55481;48.764;8.936;2023-02-26T11:04:07;96920;;;-0.2;78.5
68489;BME280;55481;48.764;8.936;2023-02-26T11:08:46;96920;;;0;78.5
68489;BME280;55481;48.764;8.936;2023-02-26T11:11:50;96920;;;0;78.5
68489;BME280;55481;48.764;8.936;2023-02-26T11:13:54;96920;;;0;78.5
68489;BME280;55481;48.764;8.936;2023-02-26T11:16:25;96910;;;-0.2;79
68489;BME280;55481;48.764;8.936;2023-02-26T11:19:02;96920;;;-0.2;79
68489;BME280;55481;48.764;8.936;2023-02-26T11:21:39;96920;;;-0.2;79
68489;BME280;55481;48.764;8.936;2023-02-26T11:26:24;96920;;;-0.2;79
68489;BME280;55481;48.764;8.936;2023-02-26T11:28:53;96920;;;-0.1;79
68489;BME280;55481;48.764;8.936;2023-02-26T11:31:23;96910;;;-0.2;79
68489;BME280;55481;48.764;8.936;2023-02-26T11:34:01;96910;;;-0.3;79
68489;BME280;55481;48.764;8.936;2023-02-26T11:36:18;96920;;;-0.3;79.5
68489;BME280;55481;48.764;8.936;2023-02-26T11:38:52;96920;;;-0.2;79
68489;BME280;55481;48.764;8.936;2023-02-26T11:46:22;96910;;;0.6;78
68489;BME280;55481;48.764;8.936;2023-02-26T11:48:51;96910;;;1.2;76.5
68489;BME280;55481;48.764;8.936;2023-02-26T11:51:24;96910;;;0.9;77
68489;BME280;55481;48.764;8.936;2023-02-26T11:53:54;96910;;;0.9;77.5
68489;BME280;55481;48.764;8.936;2023-02-26T11:59:05;96910;;;0.9;77.5
68489;BME280;55481;48.764;8.936;2023-02-26T12:01:31;96900;;;0.9;77.5
68489;BME280;55481;48.764;8.936;2023-02-26T12:04:02;96900;;;0.9;78
68489;BME280;55481;48.764;8.936;2023-02-26T12:06:26;96920;;;1;78
68489;BME280;55481;48.764;8.936;2023-02-26T12:15:05;96910;;;0.8;78.5
68489;BME280;55481;48.764;8.936;2023-02-26T12:16:35;96920;;;0.8;78.5
68489;BME280;55481;48.764;8.936;2023-02-26T12:21:39;96910;;;0.5;79
68489;BME280;55481;48.764;8.936;2023-02-26T12:29:23;96910;;;0.9;78.5
68489;BME280;55481;48.764;8.936;2023-02-26T12:31:53;96910;;;0.8;78.5
68489;BME280;55481;48.764;8.936;2023-02-26T12:34:29;96920;;;0.8;78.5
68489;BME280;55481;48.764;8.936;2023-02-26T12:39:13;96920;;;0.6;79
68489;BME280;55481;48.764;8.936;2023-02-26T12:41:42;96920;;;0.7;79
68489;BME280;55481;48.764;8.936;2023-02-26T12:44:13;96920;;;0.6;79
68489;BME280;55481;48.764;8.936;2023-02-26T12:46:42;96920;;;0.5;79
68489;BME280;55481;48.764;8.936;2023-02-26T12:51:44;96930;;;0.3;79
68489;BME280;55481;48.764;8.936;2023-02-26T13:01:50;96950;;;0.3;79
68489;BME280;55481;48.764;8.936;2023-02-26T13:04:17;96930;;;0.3;79
68489;BME280;55481;48.764;8.936;2023-02-26T13:09:38;96940;;;0.4;79
68489;BME280;55481;48.764;8.936;2023-02-26T13:11:59;96940;;;0.4;78.5
68489;BME280;55481;48.764;8.936;2023-02-26T13:14:32;96930;;;0.6;78.5
68489;BME280;55481;48.764;8.936;2023-02-26T13:17:02;96940;;;0.7;78
68489;BME280;55481;48.764;8.936;2023-02-26T13:19:27;96940;;;0.7;78
68489;BME280;55481;48.764;8.936;2023-02-26T13:22:03;96940;;;0.8;78
68489;BME280;55481;48.764;8.936;2023-02-26T13:26:56;96940;;;1.1;78
68489;BME280;55481;48.764;8.936;2023-02-26T13:29:28;96940;;;1.2;78
68489;BME280;55481;48.764;8.936;2023-02-26T13:32:00;96940;;;1.3;77.5
68489;BME280;55481;48.764;8.936;2023-02-26T13:34:34;96930;;;1.3;77.5
68489;BME280;55481;48.764;8.936;2023-02-26T13:37:01;96940;;;1.4;77.5
68489;BME280;55481;48.764;8.936;2023-02-26T13:39:41;96940;;;1.3;77.5
68489;BME280;55481;48.764;8.936;2023-02-26T13:42:06;96940;;;1.3;78
68489;BME280;55481;48.764;8.936;2023-02-26T13:44:47;96940;;;1.3;78
68489;BME280;55481;48.764;8.936;2023-02-26T13:47:20;96940;;;1.4;78
68489;BME280;55481;48.764;8.936;2023-02-26T13:52:13;96940;;;1.4;78.5
68489;BME280;55481;48.764;8.936;2023-02-26T13:57:24;96940;;;2.1;77.5
68489;BME280;55481;48.764;8.936;2023-02-26T13:59:47;96940;;;3.9;75
68489;BME280;55481;48.764;8.936;2023-02-26T14:07:13;96940;;;2.4;77
68489;BME280;55481;48.764;8.936;2023-02-26T14:09:59;96950;;;2.1;78.5
68489;BME280;55481;48.764;8.936;2023-02-26T14:12:37;96950;;;2.1;78.5
68489;BME280;55481;48.764;8.936;2023-02-26T14:17:34;96940;;;3;77.5
68489;BME280;55481;48.764;8.936;2023-02-26T14:20:24;96940;;;2.9;77
68489;BME280;55481;48.764;8.936;2023-02-26T14:22:32;96950;;;2.8;78
68489;BME280;55481;48.764;8.936;2023-02-26T14:27:22;96960;;;4.1;77.5
68489;BME280;55481;48.764;8.936;2023-02-26T14:32:25;96950;;;4.2;77
68489;BME280;55481;48.764;8.936;2023-02-26T14:37:11;96940;;;5;74
68489;BME280;55481;48.764;8.936;2023-02-26T14:39:44;96950;;;5.6;74.5
68489;BME280;55481;48.764;8.936;2023-02-26T14:42:17;96940;;;7.7;71
68489;BME280;55481;48.764;8.936;2023-02-26T14:44:45;96930;;;9.2;68
68489;BME280;55481;48.764;8.936;2023-02-26T14:47:14;96930;;;9.9;66.5
68489;BME280;55481;48.764;8.936;2023-02-26T14:49:45;96930;;;7.2;71.5
68489;BME280;55481;48.764;8.936;2023-02-26T14:52:19;96960;;;4.1;76.5
68489;BME280;55481;48.764;8.936;2023-02-26T15:01:07;96970;;;1.9;82
68489;BME280;55481;48.764;8.936;2023-02-26T15:02:27;96970;;;1.8;82
68489;BME280;55481;48.764;8.936;2023-02-26T15:05:02;96970;;;1.8;81.5
68489;BME280;55481;48.764;8.936;2023-02-26T15:07:32;96970;;;1.7;81
68489;BME280;55481;48.764;8.936;2023-02-26T15:12:38;96970;;;1.8;80
68489;BME280;55481;48.764;8.936;2023-02-26T15:15:02;96980;;;1.7;79.5
68489;BME280;55481;48.764;8.936;2023-02-26T15:20:32;96990;;;1.5;79.5
68489;BME280;55481;48.764;8.936;2023-02-26T15:27:28;96990;;;1.4;79
68489;BME280;55481;48.764;8.936;2023-02-26T15:29:57;96990;;;1.4;79
68489;BME280;55481;48.764;8.936;2023-02-26T15:32:28;96990;;;1.4;78.5
68489;BME280;55481;48.764;8.936;2023-02-26T15:35:00;97000;;;1.4;78.5
68489;BME280;55481;48.764;8.936;2023-02-26T15:37:36;97000;;;1.3;78.5
68489;BME280;55481;48.764;8.936;2023-02-26T15:40:07;97000;;;1.2;78.5
68489;BME280;55481;48.764;8.936;2023-02-26T15:42:38;97010;;;1.1;79
68489;BME280;55481;48.764;8.936;2023-02-26T15:52:49;97020;;;0.6;79
68489;BME280;55481;48.764;8.936;2023-02-26T15:55:18;97020;;;0.4;79
68489;BME280;55481;48.764;8.936;2023-02-26T16:00:19;97010;;;1.6;78
68489;BME280;55481;48.764;8.936;2023-02-26T16:02:43;97010;;;2.8;75
68489;BME280;55481;48.764;8.936;2023-02-26T16:05:18;97000;;;3.3;74
68489;BME280;55481;48.764;8.936;2023-02-26T16:15:15;97030;;;1.9;76.5
68489;BME280;55481;48.764;8.936;2023-02-26T16:17:43;97020;;;1.5;77.5
68489;BME280;55481;48.764;8.936;2023-02-26T16:20:15;97030;;;1.4;78
68489;BME280;55481;48.764;8.936;2023-02-26T16:22:46;97050;;;1.2;78
68489;BME280;55481;48.764;8.936;2023-02-26T16:25:18;97050;;;0.9;78
68489;BME280;55481;48.764;8.936;2023-02-26T16:30:22;97070;;;0.7;78.5
68489;BME280;55481;48.764;8.936;2023-02-26T16:32:53;97060;;;0.6;78.5
68489;BME280;55481;48.764;8.936;2023-02-26T16:35:26;97070;;;0.5;78.5
68489;BME280;55481;48.764;8.936;2023-02-26T16:40:34;97070;;;0.5;78.5
68489;BME280;55481;48.764;8.936;2023-02-26T16:43:28;97080;;;0.5;78.5
68489;BME280;55481;48.764;8.936;2023-02-26T16:45:43;97090;;;0.5;78.5
68489;BME280;55481;48.764;8.936;2023-02-26T16:48:05;97100;;;0.5;78
68489;BME280;55481;48.764;8.936;2023-02-26T16:52:59;97110;;;0.4;78
68489;BME280;55481;48.764;8.936;2023-02-26T16:55:28;97110;;;0.4;78
68489;BME280;55481;48.764;8.936;2023-02-26T17:00:26;97120;;;0.4;78
68489;BME280;55481;48.764;8.936;2023-02-26T17:10:37;97130;;;0.3;78
68489;BME280;55481;48.764;8.936;2023-02-26T17:13:03;97130;;;0.3;78
68489;BME280;55481;48.764;8.936;2023-02-26T17:15:30;97140;;;0.3;78
68489;BME280;55481;48.764;8.936;2023-02-26T17:17:58;97140;;;0.3;78
68489;BME280;55481;48.764;8.936;2023-02-26T17:20:36;97140;;;0.3;78
68489;BME280;55481;48.764;8.936;2023-02-26T17:23:14;97150;;;0.2;78
68489;BME280;55481;48.764;8.936;2023-02-26T17:25:39;97140;;;0.2;78
68489;BME280;55481;48.764;8.936;2023-02-26T17:28:09;97150;;;0.2;78
68489;BME280;55481;48.764;8.936;2023-02-26T17:30:39;97150;;;0.2;78
68489;BME280;55481;48.764;8.936;2023-02-26T17:38:07;97160;;;0.1;78
68489;BME280;55481;48.764;8.936;2023-02-26T17:40:37;97170;;;0.1;78
68489;BME280;55481;48.764;8.936;2023-02-26T17:43:07;97170;;;0.1;78
68489;BME280;55481;48.764;8.936;2023-02-26T17:45:38;97170;;;0;78
68489;BME280;55481;48.764;8.936;2023-02-26T17:48:09;97180;;;0.1;78
68489;BME280;55481;48.764;8.936;2023-02-26T17:50:41;97190;;;0;78
68489;BME280;55481;48.764;8.936;2023-02-26T17:53:10;97180;;;0.1;78
68489;BME280;55481;48.764;8.936;2023-02-26T17:55:41;97200;;;0;78
68489;BME280;55481;48.764;8.936;2023-02-26T17:58:43;97200;;;0;78
68489;BME280;55481;48.764;8.936;2023-02-26T18:08:22;97200;;;-0.3;78
68489;BME280;55481;48.764;8.936;2023-02-26T18:10:53;97200;;;-0.3;78
68489;BME280;55481;48.764;8.936;2023-02-26T18:13:23;97190;;;-0.4;78.5
68489;BME280;55481;48.764;8.936;2023-02-26T18:18:18;97200;;;-0.6;78.5
68489;BME280;55481;48.764;8.936;2023-02-26T18:20:49;97210;;;-0.6;78.5
68489;BME280;55481;48.764;8.936;2023-02-26T18:23:19;97200;;;-0.5;78
68489;BME280;55481;48.764;8.936;2023-02-26T18:28:23;97200;;;-0.7;78.5
68489;BME280;55481;48.764;8.936;2023-02-26T18:30:52;97200;;;-0.8;78.5
68489;BME280;55481;48.764;8.936;2023-02-26T18:35:59;97200;;;-0.8;78
68489;BME280;55481;48.764;8.936;2023-02-26T18:38:30;97200;;;-0.8;78
68489;BME280;55481;48.764;8.936;2023-02-26T18:41:02;97210;;;-0.8;78
68489;BME280;55481;48.764;8.936;2023-02-26T18:48:27;97220;;;-0.9;78
68489;BME280;55481;48.764;8.936;2023-02-26T18:54:53;97220;;;-0.4;78
68489;BME280;55481;48.764;8.936;2023-02-26T18:57:24;97210;;;-0.5;78
68489;BME280;55481;48.764;8.936;2023-02-26T18:59:55;97220;;;-0.7;78
68489;BME280;55481;48.764;8.936;2023-02-26T19:04:56;97220;;;-0.9;78.5
68489;BME280;55481;48.764;8.936;2023-02-26T19:10:10;97230;;;-1;78
68489;BME280;55481;48.764;8.936;2023-02-26T19:12:34;97230;;;-1;78
68489;BME280;55481;48.764;8.936;2023-02-26T19:15:12;97220;;;-1.1;78
68489;BME280;55481;48.764;8.936;2023-02-26T19:17:49;97220;;;-1.1;78
68489;BME280;55481;48.764;8.936;2023-02-26T19:20:14;97230;;;-1.1;78
68489;BME280;55481;48.764;8.936;2023-02-26T19:22:39;97220;;;-1.1;78
68489;BME280;55481;48.764;8.936;2023-02-26T19:25:10;97230;;;-1.2;78
68489;BME280;55481;48.764;8.936;2023-02-26T19:27:40;97230;;;-1.2;78
68489;BME280;55481;48.764;8.936;2023-02-26T19:30:12;97230;;;-1.1;78
68489;BME280;55481;48.764;8.936;2023-02-26T19:32:42;97240;;;-1.1;78
68489;BME280;55481;48.764;8.936;2023-02-26T19:37:37;97240;;;-1.2;78
68489;BME280;55481;48.764;8.936;2023-02-26T19:40:17;97240;;;-1.2;78
68489;BME280;55481;48.764;8.936;2023-02-26T19:50:12;97260;;;-1.2;78
68489;BME280;55481;48.764;8.936;2023-02-26T19:52:42;97260;;;-1.2;77.5
68489;BME280;55481;48.764;8.936;2023-02-26T19:55:13;97270;;;-1.1;77.5
68489;BME280;55481;48.764;8.936;2023-02-26T19:57:57;97270;;;-1.1;77.5
68489;BME280;55481;48.764;8.936;2023-02-26T20:00:28;97280;;;-1.1;77.5
68489;BME280;55481;48.764;8.936;2023-02-26T20:02:51;97290;;;-1;77.5
68489;BME280;55481;48.764;8.936;2023-02-26T20:05:28;97290;;;-1.1;77.5
68489;BME280;55481;48.764;8.936;2023-02-26T20:07:59;97290;;;-1;77.5
68489;BME280;55481;48.764;8.936;2023-02-26T20:15:31;97300;;;-1;77.5